createdAt,value
2022-10-02T00:02:21.394Z,100550.28
2022-10-02T00:07:32.018Z,100555.25
2022-10-02T00:12:36.914Z,100560.03
2022-10-02T00:17:44.834Z,100562.94
2022-10-02T00:22:54.589Z,100569.59
2022-10-02T00:28:13.890Z,100565.72
2022-10-02T00:33:28.476Z,100568.19
2022-10-02T00:38:45.648Z,100561.81
2022-10-02T00:44:01.197Z,100561.22
2022-10-02T00:49:33.710Z,100565.19
2022-10-02T00:55:04.296Z,100564.31
2022-10-02T01:00:12.432Z,100564.00
2022-10-02T01:05:15.433Z,100555.56
2022-10-02T01:10:22.309Z,100576.16
2022-10-02T01:15:31.307Z,100572.50
2022-10-02T01:20:38.784Z,100570.00
2022-10-02T01:25:43.207Z,100581.25
2022-10-02T01:30:50.432Z,100607.34
2022-10-02T01:35:53.661Z,100641.28
2022-10-02T01:40:57.807Z,100662.78
2022-10-02T01:46:22.107Z,100672.13
2022-10-02T01:51:49.044Z,100669.56
2022-10-02T01:57:03.456Z,100667.28
2022-10-02T02:02:16.380Z,100670.53
2022-10-02T02:07:27.077Z,100673.13
2022-10-02T02:12:39.330Z,100666.28
2022-10-02T02:17:49.327Z,100672.25
2022-10-02T02:22:55.838Z,100667.47
2022-10-02T02:28:04.478Z,100661.56
2022-10-02T02:33:12.429Z,100649.03
2022-10-02T02:38:23.112Z,100661.31
2022-10-02T02:43:32.917Z,100654.22
2022-10-02T02:48:43.749Z,100644.19
2022-10-02T02:53:52.422Z,100643.78
2022-10-02T02:59:01.915Z,100646.16
2022-10-02T03:04:05.105Z,100643.38
2022-10-02T03:09:12.509Z,100652.72
2022-10-02T03:14:45.693Z,100640.06
2022-10-02T03:19:53.822Z,100643.66
2022-10-02T03:25:04.215Z,100648.63
2022-10-02T03:30:11.240Z,100646.75
2022-10-02T03:35:15.044Z,100653.22
2022-10-02T03:40:17.892Z,100644.06
2022-10-02T03:45:46.173Z,100649.13
2022-10-02T03:50:45.130Z,100647.81
2022-10-02T03:55:51.500Z,100647.91
2022-10-02T04:01:00.597Z,100646.28
2022-10-02T04:06:07.045Z,100656.94
2022-10-02T04:11:16.671Z,100643.78
2022-10-02T04:16:28.716Z,100650.63
2022-10-02T04:21:39.018Z,100651.94
2022-10-02T04:26:47.255Z,100655.59
2022-10-02T04:31:55.201Z,100657.19
2022-10-02T04:37:12.233Z,100660.78
2022-10-02T04:42:25.654Z,100658.47
2022-10-02T04:47:47.338Z,100659.38
2022-10-02T04:53:12.103Z,100662.56
2022-10-02T04:58:30.935Z,100654.72
2022-10-02T05:03:41.071Z,100659.09
2022-10-02T05:09:08.264Z,100665.19
2022-10-02T05:14:27.347Z,100663.28
2022-10-02T05:19:43.691Z,100669.16
2022-10-02T05:25:00.113Z,100677.78
2022-10-02T05:30:08.334Z,100675.19
2022-10-02T05:35:30.328Z,100674.66
2022-10-02T05:40:37.589Z,100670.81
2022-10-02T05:45:41.813Z,100687.97
2022-10-02T05:50:50.294Z,100696.22
2022-10-02T05:55:55.709Z,100707.25
2022-10-02T06:01:06.260Z,100729.28
2022-10-02T06:06:17.606Z,100714.38
2022-10-02T06:11:27.673Z,100715.78
2022-10-02T06:16:37.593Z,100707.59
2022-10-02T06:21:47.382Z,100703.63
2022-10-02T06:26:56.876Z,100706.31
2022-10-02T06:32:14.508Z,100698.03
2022-10-02T06:37:41.229Z,100717.66
2022-10-02T06:42:53.200Z,100724.03
2022-10-02T06:48:05.382Z,100733.28
2022-10-02T06:53:22.099Z,100738.94
2022-10-02T06:58:36.279Z,100743.66
2022-10-02T07:04:00.483Z,100752.44
2022-10-02T07:09:27.109Z,100770.63
2022-10-02T07:14:51.086Z,100779.53
2022-10-02T07:20:11.596Z,100775.63
2022-10-02T07:25:43.507Z,100790.69
2022-10-02T07:30:57.463Z,100803.75
2022-10-02T07:36:07.456Z,100807.88
2022-10-02T07:41:23.128Z,100791.41
2022-10-02T07:46:38.651Z,100802.91
2022-10-02T07:51:50.759Z,100813.06
2022-10-02T07:57:00.098Z,100815.81
2022-10-02T08:02:08.775Z,100821.31
2022-10-02T08:07:13.923Z,100830.38
2022-10-02T08:12:28.803Z,100820.03
2022-10-02T08:17:36.894Z,100821.28
2022-10-02T08:22:43.823Z,100823.25
2022-10-02T08:27:54.317Z,100835.97
2022-10-02T08:32:57.744Z,100844.09
2022-10-02T08:38:17.185Z,100853.31
2022-10-02T08:44:20.281Z,100867.28
2022-10-02T08:50:07.518Z,100877.69
2022-10-02T08:55:32.851Z,100877.22
2022-10-02T09:00:46.821Z,100873.31
2022-10-02T09:06:15.574Z,100864.69
2022-10-02T09:11:44.943Z,100863.94
2022-10-02T09:17:30.642Z,100886.75
2022-10-02T09:23:07.722Z,100881.09
2022-10-02T09:29:03.847Z,100878.34
2022-10-02T09:34:48.021Z,100880.47
2022-10-02T09:40:32.927Z,100889.53
2022-10-02T09:46:07.735Z,100889.53
2022-10-02T09:51:44.054Z,100883.00
2022-10-02T09:57:18.516Z,100874.75
2022-10-02T10:03:02.768Z,100886.13
2022-10-02T10:08:46.972Z,100888.19
2022-10-02T10:14:24.501Z,100876.81
2022-10-02T10:20:03.011Z,100880.88
2022-10-02T10:25:23.646Z,100898.00
2022-10-02T10:30:54.250Z,100889.56
2022-10-02T10:36:33.733Z,100899.91
2022-10-02T10:42:12.842Z,100905.94
2022-10-02T10:47:38.602Z,100900.59
2022-10-02T10:53:08.281Z,100902.78
2022-10-02T10:58:21.213Z,100897.72
2022-10-02T11:04:08.737Z,100915.47
2022-10-02T11:09:53.693Z,100911.31
2022-10-02T11:15:17.510Z,100910.03
2022-10-02T11:20:32.762Z,100918.50
2022-10-02T11:25:59.862Z,100932.59
2022-10-02T11:31:22.955Z,100928.47
2022-10-02T11:36:47.574Z,100927.00
2022-10-02T11:42:21.057Z,100943.66
2022-10-02T11:47:56.611Z,100934.38
2022-10-02T11:53:23.330Z,100932.78
2022-10-02T11:58:45.271Z,100932.97
2022-10-02T12:03:58.654Z,100933.72
2022-10-02T12:09:09.908Z,100933.63
2022-10-02T12:14:26.518Z,100944.03
2022-10-02T12:20:03.912Z,100948.97
2022-10-02T12:25:42.771Z,100968.50
2022-10-02T12:30:54.126Z,100972.81
2022-10-02T12:36:24.453Z,100978.38
2022-10-02T12:41:46.858Z,100981.16
2022-10-02T12:47:14.853Z,100975.13
2022-10-02T12:53:04.327Z,100965.00
2022-10-02T12:58:11.289Z,100975.69
2022-10-02T13:03:48.870Z,100972.41
2022-10-02T13:09:16.740Z,100977.22
2022-10-02T13:14:41.903Z,100972.06
2022-10-02T13:19:57.273Z,100977.69
2022-10-02T13:25:24.062Z,100976.19
2022-10-02T13:30:35.681Z,100985.50
2022-10-02T13:36:04.541Z,101001.72
2022-10-02T13:41:13.179Z,100997.34
2022-10-02T13:46:27.056Z,100996.00
2022-10-02T13:51:38.344Z,101011.00
2022-10-02T13:56:51.314Z,101028.94
2022-10-02T14:02:07.849Z,101030.00
2022-10-02T14:07:27.748Z,101034.75
2022-10-02T14:12:39.305Z,101023.72
2022-10-02T14:17:55.272Z,101029.75
2022-10-02T14:23:14.889Z,101031.66
2022-10-02T14:28:33.626Z,101041.75
2022-10-02T14:33:58.012Z,101041.91
2022-10-02T14:39:13.329Z,101041.31
2022-10-02T14:44:30.632Z,101047.00
2022-10-02T14:50:13.646Z,101046.94
2022-10-02T14:55:28.175Z,101046.94
2022-10-02T15:00:37.004Z,101056.84
2022-10-02T15:05:55.822Z,101066.19
2022-10-02T15:11:01.608Z,101055.53
2022-10-02T15:16:32.780Z,101081.72
2022-10-02T15:21:43.779Z,101066.50
2022-10-02T15:26:51.488Z,101077.44
2022-10-02T15:32:28.316Z,101082.00
2022-10-02T15:37:41.213Z,101099.94
2022-10-02T15:42:54.026Z,101110.53
2022-10-02T15:48:13.632Z,101125.16
2022-10-02T15:53:33.560Z,101125.53
2022-10-02T15:59:02.938Z,101128.34
2022-10-02T16:04:15.328Z,101132.78
2022-10-02T16:09:40.305Z,101127.34
2022-10-02T16:14:59.096Z,101139.81
2022-10-02T16:20:27.000Z,101146.06
2022-10-02T16:25:45.544Z,101167.84
2022-10-02T16:31:12.926Z,101169.44
2022-10-02T16:36:30.249Z,101177.69
2022-10-02T16:41:38.607Z,101185.50
2022-10-02T16:46:45.989Z,101194.91
2022-10-02T16:51:58.233Z,101205.81
2022-10-02T16:57:07.865Z,101210.00
2022-10-02T17:02:20.075Z,101209.22
2022-10-02T17:07:32.958Z,101229.16
2022-10-02T17:12:46.360Z,101231.28
2022-10-02T17:18:05.373Z,101232.25
2022-10-02T17:23:17.812Z,101239.84
2022-10-02T17:28:26.822Z,101258.13
2022-10-02T17:33:45.101Z,101265.16
2022-10-02T17:39:04.455Z,101287.53
2022-10-02T17:44:17.327Z,101282.97
2022-10-02T17:49:32.273Z,101295.09
2022-10-02T17:55:10.875Z,101313.22
2022-10-02T18:00:21.279Z,101309.88
2022-10-02T18:05:33.827Z,101315.75
2022-10-02T18:10:47.651Z,101331.00
2022-10-02T18:16:22.204Z,101342.84
2022-10-02T18:21:38.882Z,101352.47
2022-10-02T18:27:07.096Z,101361.41
2022-10-02T18:32:26.880Z,101362.44
2022-10-02T18:37:54.771Z,101367.41
2022-10-02T18:43:13.545Z,101375.75
2022-10-02T18:48:38.543Z,101380.81
2022-10-02T18:53:55.439Z,101387.94
2022-10-02T18:59:12.719Z,101384.97
2022-10-02T19:04:37.189Z,101392.75
2022-10-02T19:09:42.385Z,101395.56
2022-10-02T19:14:46.901Z,101397.84
2022-10-02T19:19:49.651Z,101400.88
2022-10-02T19:24:58.015Z,101402.88
2022-10-02T19:30:01.328Z,101409.19
2022-10-02T19:35:12.174Z,101412.31
2022-10-02T19:40:19.168Z,101427.50
2022-10-02T19:45:26.581Z,101427.72
2022-10-02T19:50:40.955Z,101432.16
2022-10-02T19:55:47.323Z,101433.34
2022-10-02T20:00:52.450Z,101443.72
2022-10-02T20:06:00.868Z,101449.84
2022-10-02T20:11:08.188Z,101450.72
2022-10-02T20:16:35.574Z,101457.38
2022-10-02T20:21:41.244Z,101453.19
2022-10-02T20:26:47.688Z,101464.13
2022-10-02T20:31:54.206Z,101473.03
2022-10-02T20:37:02.444Z,101466.47
2022-10-02T20:42:13.417Z,101477.31
2022-10-02T20:47:51.512Z,101485.16
2022-10-02T20:53:38.925Z,101486.34
2022-10-02T20:59:19.886Z,101487.69
2022-10-02T21:04:55.483Z,101492.31
2022-10-02T21:10:50.998Z,101498.28
2022-10-02T21:16:21.479Z,101497.78
2022-10-02T21:21:53.967Z,101501.28
2022-10-02T21:27:27.684Z,101506.03
2022-10-02T21:32:56.489Z,101506.03
2022-10-02T21:38:22.198Z,101518.69
2022-10-02T21:44:11.282Z,101514.94
2022-10-02T21:49:42.972Z,101524.53
2022-10-02T21:55:26.604Z,101524.28
2022-10-02T22:00:31.159Z,101531.28
2022-10-02T22:06:08.259Z,101533.88
2022-10-02T22:11:23.989Z,101536.94
2022-10-02T22:16:40.274Z,101552.84
2022-10-02T22:22:01.779Z,101560.03
2022-10-02T22:27:22.967Z,101569.38
2022-10-02T22:33:06.488Z,101576.91
2022-10-02T22:38:21.865Z,101579.53
2022-10-02T22:43:31.850Z,101580.97
2022-10-02T22:48:38.751Z,101579.44
2022-10-02T22:53:49.215Z,101592.69
2022-10-02T22:58:59.846Z,101596.09
2022-10-02T23:04:08.972Z,101594.81
2022-10-02T23:09:19.378Z,101596.13
2022-10-02T23:14:29.890Z,101608.16
2022-10-02T23:19:42.972Z,101606.50
2022-10-02T23:24:52.409Z,101605.72
2022-10-02T23:30:00.290Z,101621.34
2022-10-02T23:35:12.773Z,101614.56
2022-10-02T23:40:45.685Z,101617.59
2022-10-02T23:45:55.978Z,101622.00
2022-10-02T23:51:15.546Z,101629.13
2022-10-02T23:56:43.042Z,101639.88
